Aviation Digital Data Service (ADDS)

Output produced by METARs form (0016 UTC 21 January 2019)
found at http://www.aviationweather.gov/metar/data/
 
METAR text: WAOO 210000Z 09002KT 7000 RA SCT018 25/24 Q1009
Conditions at: WAOO (SYAMSUDIN NOOR , ID) observed 0000 UTC 21 January 2019
Temperature: 25.0°C (77°F)
Dewpoint: 24.0°C (75°F) [RH = 94%]
Pressure (altimeter): 29.79 inches Hg (1009.0 mb)
Winds: from the E (90 degrees) at 2 MPH (2 knots; 1.0 m/s)
Visibility: 4 miles ( 7 km)
Ceiling: at least 12,000 feet AGL
Clouds: scattered clouds at 1800 feet AGL
Weather: RA  (moderate rain)

METAR text: WAOO 202300Z AUTO 09003KT 030V120 4800 BR FEW007 SCT014 SCT050 24/24 Q1008
Conditions at: WAOO (SYAMSUDIN NOOR , ID) observed 2300 UTC 20 January 2019
Temperature: 24.0°C (75°F)
Dewpoint: 24.0°C (75°F) [RH = 100%]
Pressure (altimeter): 29.76 inches Hg (1008.0 mb)
Winds: from the E (90 degrees) at 3 MPH (3 knots; 1.5 m/s)
Visibility: 2.98 miles (4.80 km)
Ceiling: at least 12,000 feet AGL
Clouds: few clouds at 700 feet AGL
scattered clouds at 1400 feet AGL
scattered clouds at 5000 feet AGL
Weather: BR  (mist)

METAR text: WAOO 202200Z AUTO VRB02KT 7000 FEW005 SCT013 BKN020 24/24 Q1007
Conditions at: WAOO (SYAMSUDIN NOOR , ID) observed 2200 UTC 20 January 2019
Temperature: 24.0°C (75°F)
Dewpoint: 24.0°C (75°F) [RH = 100%]
Pressure (altimeter): 29.73 inches Hg (1007.0 mb)
Winds: variable direction winds at 2 MPH (2 knots; 1.0 m/s)
Visibility: 4 miles ( 7 km)
Ceiling: 2000 feet AGL
Clouds: few clouds at 500 feet AGL
scattered clouds at 1300 feet AGL
broken clouds at 2000 feet AGL
Weather: no significant weather observed at this time

METAR text: WAOO 201700Z AUTO 03002KT 3900 BR FEW002 SCT015 BKN027 24/24 Q1009
Conditions at: WAOO (SYAMSUDIN NOOR , ID) observed 1700 UTC 20 January 2019
Temperature: 24.0°C (75°F)
Dewpoint: 24.0°C (75°F) [RH = 100%]
Pressure (altimeter): 29.79 inches Hg (1009.0 mb)
Winds: from the NNE (30 degrees) at 2 MPH (2 knots; 1.0 m/s)
Visibility: 2.42 miles (3.89 km)
Ceiling: 2700 feet AGL
Clouds: few clouds at 200 feet AGL
scattered clouds at 1500 feet AGL
broken clouds at 2700 feet AGL
Weather: BR  (mist)

METAR text: WAOO 201600Z AUTO 35005KT 5000 FEW008 OVC140 24/24 Q1009
Conditions at: WAOO (SYAMSUDIN NOOR , ID) observed 1600 UTC 20 January 2019
Temperature: 24.0°C (75°F)
Dewpoint: 24.0°C (75°F) [RH = 100%]
Pressure (altimeter): 29.79 inches Hg (1009.0 mb)
Winds: from the N (350 degrees) at 6 MPH (5 knots; 2.6 m/s)
Visibility: 3 miles ( 5 km)
Ceiling: 14000 feet AGL
Clouds: few clouds at 800 feet AGL
overcast cloud deck at 14000 feet AGL
Weather: no significant weather observed at this time

METAR text: WAOO 201400Z AUTO 28003KT 5000 BKN017 OVC240 24/24 Q1009
Conditions at: WAOO (SYAMSUDIN NOOR , ID) observed 1400 UTC 20 January 2019
Temperature: 24.0°C (75°F)
Dewpoint: 24.0°C (75°F) [RH = 100%]
Pressure (altimeter): 29.79 inches Hg (1009.0 mb)
Winds: from the W (280 degrees) at 3 MPH (3 knots; 1.5 m/s)
Visibility: 3 miles ( 5 km)
Ceiling: 1700 feet AGL
Clouds: broken clouds at 1700 feet AGL
overcast cloud deck at 24000 feet AGL
Weather: no significant weather observed at this time

METAR text: WAOO 200800Z 03005KT 9000 SCT017 25/24 Q1007
Conditions at: WAOO (SYAMSUDIN NOOR , ID) observed 0800 UTC 20 January 2019
Temperature: 25.0°C (77°F)
Dewpoint: 24.0°C (75°F) [RH = 94%]
Pressure (altimeter): 29.73 inches Hg (1007.0 mb)
Winds: from the NNE (30 degrees) at 6 MPH (5 knots; 2.6 m/s)
Visibility: 6 miles ( 9 km)
Ceiling: at least 12,000 feet AGL
Clouds: scattered clouds at 1700 feet AGL
Weather: no significant weather observed at this time

METAR text: WAOO 200730Z 12004KT 9999 RA SCT017 25/24 Q1008
Conditions at: WAOO (SYAMSUDIN NOOR , ID) observed 0730 UTC 20 January 2019
Temperature: 25.0°C (77°F)
Dewpoint: 24.0°C (75°F) [RH = 94%]
Pressure (altimeter): 29.76 inches Hg (1008.0 mb)
Winds: from the ESE (120 degrees) at 5 MPH (4 knots; 2.1 m/s)
Visibility: 6 or more miles (10+ km)
Ceiling: at least 12,000 feet AGL
Clouds: scattered clouds at 1700 feet AGL
Weather: RA  (moderate rain)

METAR text: WAOO 200700Z 13004KT 9000 RA FEW016CB FEW016 25/24 Q1008
Conditions at: WAOO (SYAMSUDIN NOOR , ID) observed 0700 UTC 20 January 2019
Temperature: 25.0°C (77°F)
Dewpoint: 24.0°C (75°F) [RH = 94%]
Pressure (altimeter): 29.76 inches Hg (1008.0 mb)
Winds: from the SE (130 degrees) at 5 MPH (4 knots; 2.1 m/s)
Visibility: 6 miles ( 9 km)
Ceiling: at least 12,000 feet AGL
Clouds: few clouds at 1600 feet AGL
few clouds at 1600 feet AGL
Weather: RA  (moderate rain)

METAR text: WAOO 200630Z 08003KT 5000 RA FEW016CB SCT016 25/24 Q1008
Conditions at: WAOO (SYAMSUDIN NOOR , ID) observed 0630 UTC 20 January 2019
Temperature: 25.0°C (77°F)
Dewpoint: 24.0°C (75°F) [RH = 94%]
Pressure (altimeter): 29.76 inches Hg (1008.0 mb)
Winds: from the E (80 degrees) at 3 MPH (3 knots; 1.5 m/s)
Visibility: 3 miles ( 5 km)
Ceiling: at least 12,000 feet AGL
Clouds: few clouds at 1600 feet AGL
scattered clouds at 1600 feet AGL
Weather: RA  (moderate rain)

METAR text: WAOO 200600Z 14003KT 2000 RA FEW016CB SCT016 25/24 Q1009
Conditions at: WAOO (SYAMSUDIN NOOR , ID) observed 0600 UTC 20 January 2019
Temperature: 25.0°C (77°F)
Dewpoint: 24.0°C (75°F) [RH = 94%]
Pressure (altimeter): 29.79 inches Hg (1009.0 mb)
Winds: from the SE (140 degrees) at 3 MPH (3 knots; 1.5 m/s)
Visibility: 1.24 miles (2.00 km)
Ceiling: at least 12,000 feet AGL
Clouds: few clouds at 1600 feet AGL
scattered clouds at 1600 feet AGL
Weather: RA  (moderate rain)

METAR text: WAOO 200530Z 16005KT 1500 TSRA FEW016CB BKN016 25/24 Q1009 RMK CB OVER THE FIELD
Conditions at: WAOO (SYAMSUDIN NOOR , ID) observed 0530 UTC 20 January 2019
Temperature: 25.0°C (77°F)
Dewpoint: 24.0°C (75°F) [RH = 94%]
Pressure (altimeter): 29.79 inches Hg (1009.0 mb)
Winds: from the SSE (160 degrees) at 6 MPH (5 knots; 2.6 m/s)
Visibility: 0.93 miles (1.50 km)
Ceiling: 1600 feet AGL
Clouds: few clouds at 1600 feet AGL
broken clouds at 1600 feet AGL
Weather: TSRA  (rain associated with thunderstorm(s))

METAR text: WAOO 200500Z 17007KT 2000 TSRA FEW016CB BKN015 27/24 Q1009 RMK CB TO AREA
Conditions at: WAOO (SYAMSUDIN NOOR , ID) observed 0500 UTC 20 January 2019
Temperature: 27.0°C (81°F)
Dewpoint: 24.0°C (75°F) [RH = 84%]
Pressure (altimeter): 29.79 inches Hg (1009.0 mb)
Winds: from the S (170 degrees) at 8 MPH (7 knots; 3.6 m/s)
Visibility: 1.24 miles (2.00 km)
Ceiling: 1500 feet AGL
Clouds: few clouds at 1600 feet AGL
broken clouds at 1500 feet AGL
Weather: TSRA  (rain associated with thunderstorm(s))

METAR text: WAOO 200430Z 18005KT 9999 TS FEW017CB SCT017 29/25 Q1009
Conditions at: WAOO (SYAMSUDIN NOOR , ID) observed 0430 UTC 20 January 2019
Temperature: 29.0°C (84°F)
Dewpoint: 25.0°C (77°F) [RH = 79%]
Pressure (altimeter): 29.79 inches Hg (1009.0 mb)
Winds: from the S (180 degrees) at 6 MPH (5 knots; 2.6 m/s)
Visibility: 6 or more miles (10+ km)
Ceiling: at least 12,000 feet AGL
Clouds: few clouds at 1700 feet AGL
scattered clouds at 1700 feet AGL
Weather: TS  (thunderstorm)

METAR text: WAOO 200400Z 31004KT 9999 SCT017 29/25 Q1009
Conditions at: WAOO (SYAMSUDIN NOOR , ID) observed 0400 UTC 20 January 2019
Temperature: 29.0°C (84°F)
Dewpoint: 25.0°C (77°F) [RH = 79%]
Pressure (altimeter): 29.79 inches Hg (1009.0 mb)
Winds: from the NW (310 degrees) at 5 MPH (4 knots; 2.1 m/s)
Visibility: 6 or more miles (10+ km)
Ceiling: at least 12,000 feet AGL
Clouds: scattered clouds at 1700 feet AGL
Weather: no significant weather observed at this time

METAR text: WAOO 200330Z 34005KT 9999 SCT017 30/26 Q1009
Conditions at: WAOO (SYAMSUDIN NOOR , ID) observed 0330 UTC 20 January 2019
Temperature: 30.0°C (86°F)
Dewpoint: 26.0°C (79°F) [RH = 79%]
Pressure (altimeter): 29.79 inches Hg (1009.0 mb)
Winds: from the NNW (340 degrees) at 6 MPH (5 knots; 2.6 m/s)
Visibility: 6 or more miles (10+ km)
Ceiling: at least 12,000 feet AGL
Clouds: scattered clouds at 1700 feet AGL
Weather: no significant weather observed at this time

METAR text: WAOO 200300Z 04005KT 9999 SCT017 30/26 Q1010 NOSIG
Conditions at: WAOO (SYAMSUDIN NOOR , ID) observed 0300 UTC 20 January 2019
Temperature: 30.0°C (86°F)
Dewpoint: 26.0°C (79°F) [RH = 79%]
Pressure (altimeter): 29.82 inches Hg (1010.0 mb)
Winds: from the NE (40 degrees) at 6 MPH (5 knots; 2.6 m/s)
Visibility: 6 or more miles (10+ km)
Ceiling: at least 12,000 feet AGL
Clouds: scattered clouds at 1700 feet AGL
Weather: no significant weather observed at this time

METAR text: WAOO 200230Z 02005KT 9999 SCT017 28/25 Q1010 NOSIG
Conditions at: WAOO (SYAMSUDIN NOOR , ID) observed 0230 UTC 20 January 2019
Temperature: 28.0°C (82°F)
Dewpoint: 25.0°C (77°F) [RH = 84%]
Pressure (altimeter): 29.82 inches Hg (1010.0 mb)
Winds: from the NNE (20 degrees) at 6 MPH (5 knots; 2.6 m/s)
Visibility: 6 or more miles (10+ km)
Ceiling: at least 12,000 feet AGL
Clouds: scattered clouds at 1700 feet AGL
Weather: no significant weather observed at this time

METAR text: WAOO 200200Z 04005KT 9999 28/25 Q1010 RERA
Conditions at: WAOO (SYAMSUDIN NOOR , ID) observed 0200 UTC 20 January 2019
Temperature: 28.0°C (82°F)
Dewpoint: 25.0°C (77°F) [RH = 84%]
Pressure (altimeter): 29.82 inches Hg (1010.0 mb)
Winds: from the NE (40 degrees) at 6 MPH (5 knots; 2.6 m/s)
Visibility: 6 or more miles (10+ km)
Ceiling: unknown
Clouds: missing
Weather: no significant weather observed at this time

METAR text: WAOO 200130Z 04005KT 9999 SCT017 27/25 Q1010 NOSIG
Conditions at: WAOO (SYAMSUDIN NOOR , ID) observed 0130 UTC 20 January 2019
Temperature: 27.0°C (81°F)
Dewpoint: 25.0°C (77°F) [RH = 89%]
Pressure (altimeter): 29.82 inches Hg (1010.0 mb)
Winds: from the NE (40 degrees) at 6 MPH (5 knots; 2.6 m/s)
Visibility: 6 or more miles (10+ km)
Ceiling: at least 12,000 feet AGL
Clouds: scattered clouds at 1700 feet AGL
Weather: no significant weather observed at this time

METAR text: WAOO 200100Z 04005KT 9999 SCT017 27/25 Q1010 NOSIG
Conditions at: WAOO (SYAMSUDIN NOOR , ID) observed 0100 UTC 20 January 2019
Temperature: 27.0°C (81°F)
Dewpoint: 25.0°C (77°F) [RH = 89%]
Pressure (altimeter): 29.82 inches Hg (1010.0 mb)
Winds: from the NE (40 degrees) at 6 MPH (5 knots; 2.6 m/s)
Visibility: 6 or more miles (10+ km)
Ceiling: at least 12,000 feet AGL
Clouds: scattered clouds at 1700 feet AGL
Weather: no significant weather observed at this time

METAR text: WAOO 200000Z 05004KT 8000 SCT017 25/25 Q1009 NOSIG
Conditions at: WAOO (SYAMSUDIN NOOR , ID) observed 0000 UTC 20 January 2019
Temperature: 25.0°C (77°F)
Dewpoint: 25.0°C (77°F) [RH = 100%]
Pressure (altimeter): 29.79 inches Hg (1009.0 mb)
Winds: from the NE (50 degrees) at 5 MPH (4 knots; 2.1 m/s)
Visibility: 5 miles ( 8 km)
Ceiling: at least 12,000 feet AGL
Clouds: scattered clouds at 1700 feet AGL
Weather: no significant weather observed at this time

METAR text: WAOO 192300Z 02008KT 9000 SCT018 25/24 Q1008
Conditions at: WAOO (SYAMSUDIN NOOR , ID) observed 2300 UTC 19 January 2019
Temperature: 25.0°C (77°F)
Dewpoint: 24.0°C (75°F) [RH = 94%]
Pressure (altimeter): 29.76 inches Hg (1008.0 mb)
Winds: from the NNE (20 degrees) at 9 MPH (8 knots; 4.1 m/s)
Visibility: 6 miles ( 9 km)
Ceiling: at least 12,000 feet AGL
Clouds: scattered clouds at 1800 feet AGL
Weather: no significant weather observed at this time

METAR text: WAOO 191800Z AUTO 09003KT 6000 FEW013 FEW150 25/25 Q1008
Conditions at: WAOO (SYAMSUDIN NOOR , ID) observed 1800 UTC 19 January 2019
Temperature: 25.0°C (77°F)
Dewpoint: 25.0°C (77°F) [RH = 100%]
Pressure (altimeter): 29.76 inches Hg (1008.0 mb)
Winds: from the E (90 degrees) at 3 MPH (3 knots; 1.5 m/s)
Visibility: 4 miles ( 6 km)
Ceiling: at least 12,000 feet AGL
Clouds: few clouds at 1300 feet AGL
few clouds at 15000 feet AGL
Weather: no significant weather observed at this time

METAR text: WAOO 191700Z AUTO 05002KT 6000 BKN130 BKN160 25/25 Q1008
Conditions at: WAOO (SYAMSUDIN NOOR , ID) observed 1700 UTC 19 January 2019
Temperature: 25.0°C (77°F)
Dewpoint: 25.0°C (77°F) [RH = 100%]
Pressure (altimeter): 29.76 inches Hg (1008.0 mb)
Winds: from the NE (50 degrees) at 2 MPH (2 knots; 1.0 m/s)
Visibility: 4 miles ( 6 km)
Ceiling: 13000 feet AGL
Clouds: broken clouds at 13000 feet AGL
broken clouds at 16000 feet AGL
Weather: no significant weather observed at this time

METAR text: WAOO 191600Z AUTO 04001KT 6000 NCD 25/25 Q1008
Conditions at: WAOO (SYAMSUDIN NOOR , ID) observed 1600 UTC 19 January 2019
Temperature: 25.0°C (77°F)
Dewpoint: 25.0°C (77°F) [RH = 100%]
Pressure (altimeter): 29.76 inches Hg (1008.0 mb)
Winds: from the NE (40 degrees) at 1 MPH (1 knots; 0.5 m/s)
Visibility: 4 miles ( 6 km)
Ceiling: at least 12,000 feet AGL
Clouds: sky clear below 12,000 feet AGL
Weather: no significant weather observed at this time

METAR text: WAOO 191500Z 09002KT 9000 FEW018 27/25 Q1009
Conditions at: WAOO (SYAMSUDIN NOOR , ID) observed 1500 UTC 19 January 2019
Temperature: 27.0°C (81°F)
Dewpoint: 25.0°C (77°F) [RH = 89%]
Pressure (altimeter): 29.79 inches Hg (1009.0 mb)
Winds: from the E (90 degrees) at 2 MPH (2 knots; 1.0 m/s)
Visibility: 6 miles ( 9 km)
Ceiling: at least 12,000 feet AGL
Clouds: few clouds at 1800 feet AGL
Weather: no significant weather observed at this time

METAR text: WAOO 191300Z 10006KT 9000 FEW020 27/25 Q1009 NOSIG
Conditions at: WAOO (SYAMSUDIN NOOR , ID) observed 1300 UTC 19 January 2019
Temperature: 27.0°C (81°F)
Dewpoint: 25.0°C (77°F) [RH = 89%]
Pressure (altimeter): 29.79 inches Hg (1009.0 mb)
Winds: from the E (100 degrees) at 7 MPH (6 knots; 3.1 m/s)
Visibility: 6 miles ( 9 km)
Ceiling: at least 12,000 feet AGL
Clouds: few clouds at 2000 feet AGL
Weather: no significant weather observed at this time

Forecast for: WAOO (SYAMSUDIN NOOR , ID)
Text: TAF WAOO 202300Z 2100/2124 05006KT 9999 SCT017
Forecast period: 0000 UTC 21 January 2019 to 0000 UTC 22 January 2019
Forecast type: FROM: standard forecast or significant change
Winds: from the NE (50 degrees) at 7 MPH (6 knots; 3.1 m/s)
Visibility: 6 or more miles 10+ km)
Ceiling: at least 12,000 feet AGL
Clouds: scattered clouds at 1700 feet AGL
Weather: no significant weather forecast for this period
Text: TEMPO 2105/2109 5000 TSRA FEW015CB
Forecast period: 0500 to 0900 UTC 21 January 2019
Forecast type: TEMPORARY: The following changes expected for less than half the time period
Visibility: 3 miles (5 km)
Ceiling: at least 12,000 feet AGL
Clouds: few clouds at 1500 feet AGL
Weather: TSRA  (rain associated with thunderstorm(s))